Domov               UVHVVR             MKGP            O straneh              
ZDRAVSTVENO VARSTVO RASTLIN
  MREŽA AGROMET. POSTAJ
 ► PROGNOSTIČNA OBVESTILA
AGROMETEOROLOŠKI PODATKI -
ARSO
OBVLADOVANJE TVEGANJ ZARADI
NEUGODNIH VREMENSKIH RAZMER
  ► NARAVNE NESREČE
  ► SUŠA/MOČA
  ► NAMAKANJE
  ► ŽLED (gozdarstvo)
KARTOGRAFSKI PRIKAZI
SPLETNE POVEZAVE
PROJEKTI IN PUBLIKACIJE

AGROMETEOROLOŠKA MREŽA: VREMENSKE POSTAJE IN FENOLOŠKA OPAZOVANJA

Pregled podatkov za lokacijo Labor, meteorološka postaja 42414

Pregled senzorjev na lokaciji

ID Ime Zadnja
vrednost
Datum
zadnje
spremembe
Tip
senzorja
2101 Omočenost lista (U) 0 U 18.3.2019 22:59 A730WET
2102 Padavine (mm) 0 mm 18.3.2019 23:00 Rain-O-Matic
2100 Relativna vlaga 2 m (% RH) 58,95 % RH 18.3.2019 23:00 50YA
2099 Temperatura 2 m (°C) 5,7 °C 18.3.2019 23:00 50YA

Pregled podatkov zadnjih 24 ur

Zap.
št.
Datum in čas Labor
Omočenost
lista
Padavine Relativna
vlaga
2
m
Temperatura
2
m
1 18.3.2019 22:30
2 18.3.2019 22:00 0 0 59 5,7
3 18.3.2019 21:30 0 0 62,2 5,3
4 18.3.2019 21:00 0 0 64,9 5,1
5 18.3.2019 20:30 0 0 67 4,9
6 18.3.2019 20:00 0 0 68,9 4,8
7 18.3.2019 19:30 0 0 68,3 4,9
8 18.3.2019 19:00 1 0 69,9 4,8
9 18.3.2019 18:30 2 0 72,4 4,5
10 18.3.2019 18:00 3 0 74,1 4,5
11 18.3.2019 17:30 7 0 74,2 4,4
12 18.3.2019 17:00 5 0,4 75,6 4,3
13 18.3.2019 16:30 4 0,6 78,2 4,1
14 18.3.2019 16:00 4 0 80,8 4
15 18.3.2019 15:30 3 0,6 83 3,7
16 18.3.2019 15:00 6 1 85,8 3,7
17 18.3.2019 14:30 7 2 87,2 3,8
18 18.3.2019 14:00 10 0,8 83,5 4,4
19 18.3.2019 13:30 10 0,6 84,5 4,7
20 18.3.2019 13:00 10 0,4 87,4 5,9
21 18.3.2019 12:30 10 0,8 86,1 6,9
22 18.3.2019 12:00 8 0 76,2 8,1
23 18.3.2019 11:30 0 0 66,9 12,1
24 18.3.2019 11:00 0 0 68,2 12,4
25 18.3.2019 10:30 6 0 71,3 12,3
26 18.3.2019 10:00 1 0 71,4 12,6
27 18.3.2019 09:30 0 0 71,6 12,3
28 18.3.2019 09:00 0 0 72,3 11,8
29 18.3.2019 08:30 0 0 74 11,4
30 18.3.2019 08:00 0 0 77,3 11
31 18.3.2019 07:30 0 0 81,1 10,3
32 18.3.2019 07:00 0 0 84,4 10
33 18.3.2019 06:30 0 0 85,2 9,9
34 18.3.2019 06:00 0 0 84,4 10
35 18.3.2019 05:30 0 0 84 10,1
36 18.3.2019 05:00 0 0 84,3 10,1
37 18.3.2019 04:30 0 0 84,5 10,1
38 18.3.2019 04:00 0 0 84,8 10
39 18.3.2019 03:30 0 0 86 9,8
40 18.3.2019 03:00 0 0 85,7 9,9
41 18.3.2019 02:30 0 0 85,3 10,2
42 18.3.2019 02:00 0 0 83,4 10,5
43 18.3.2019 01:30 0 0 83 10,6
44 18.3.2019 01:00 0 0 83,2 10,6
45 18.3.2019 00:30 0 0 82,5 10,6
46 18.3.2019 00:00 0 0 83,2 10,5
47 17.3.2019 23:30 0 0 83,4 10,6
48 17.3.2019 23:00 0 0 82,9 10,6
© 2011 Ministrstvo za kmetijstvo, gozdarstvo in prehrano. Vse pravice pridržane.